Skip Navigation Links Skip Navigation Links

Current Weather

Anaktuvuk Pass, Alaska

For information only: do not use for flight planning or navigation.
Latest weather
Observation time Saturday, October 19, 2019 1:56 AM AKDT
Local time Saturday, October 19, 2019 2:16 AM AKDT
Flight conditions Visual Meteorological Conditions
Winds
Wind direction Southwest (220°)
Wind speed 3 mph
Visibility 10 mi.
Sky condition
Ceiling 8,000 ft. overcast
Cloud layer overcast 8,000 ft.
Temperature 19°F
Dewpoint 14°F
Altimeter 29.51 in.Hg
Derived measurements
Relative humidity 80%
Wind chill 14°F
Density altitude -126 ft.
Sea-level pressure 29.67 in.Hg
Remarks
Fully automated report.
Automated weather observing station with precipitation discriminator.
Freezing rain sensor not operating.
METAR PAKP 190956Z AUTO 22003KT 10SM OVC080 M07/M10 A2951 RMK AO2 SLP047 T10721100 FZRANO

Settings

Location code

InnerDrive.Weather 4.0.6770.0 Release CLR 4.0.30319.42000
Copyright ©2018 Inner Drive Technology. All rights reserved. Portions Copyright ©1986-2018 David Braverman.

Find weather

Site navigation


Skip Navigation Links

Place info

Page info

PayPal - The safer, easier way to pay online!

Return home.

Copyright ©2019 Inner Drive Technology. Purveyors of fine, hand-crafted computer software. Page printed 2019-10-19T10:16:06 UTC.